Time;durP1;ratioP1;P1;durP2;ratioP2;P2;SDS_P1;SDS_P2;PMS_P1;PMS_P2;Temp;Humidity;BMP_temperature;BMP_pressure;BME280_temperature;BME280_humidity;BME280_pressure;Samples;Min_cycle;Max_cycle;Signal;HPM_P1;HPM_P2
2022/03/11 00:00:59;;;;;;;7.30;5.50;;;10.40;40.00;;;;;;5040406;28;20174;-77
2022/03/11 00:03:25;;;;;;;8.27;5.87;;;10.40;40.10;;;;;;5023029;28;20198;-77
2022/03/11 00:05:52;;;;;;;7.00;6.07;;;10.50;40.00;;;;;;5044405;28;20571;-77
2022/03/11 00:08:18;;;;;;;8.30;4.53;;;10.50;39.90;;;;;;5041332;28;20185;-77
2022/03/11 00:10:43;;;;;;;7.83;6.47;;;10.50;39.70;;;;;;5044047;28;20172;-77
2022/03/11 00:13:09;;;;;;;6.70;6.00;;;10.50;39.90;;;;;;5042199;28;20646;-77
2022/03/11 00:15:35;;;;;;;9.07;6.60;;;10.50;40.20;;;;;;5044506;28;20179;-78
2022/03/11 00:18:01;;;;;;;7.20;6.07;;;10.50;40.00;;;;;;5045358;28;20562;-78
2022/03/11 00:20:27;;;;;;;8.43;6.00;;;10.50;40.10;;;;;;5046007;28;20208;-79
2022/03/11 00:22:53;;;;;;;6.57;5.43;;;10.50;40.30;;;;;;5041231;28;20197;-78
2022/03/11 00:25:20;;;;;;;6.45;5.82;;;10.50;40.40;;;;;;5045710;28;20181;-78
2022/03/11 00:27:46;;;;;;;8.43;6.45;;;10.50;40.30;;;;;;5042966;28;20174;-78
2022/03/11 00:30:13;;;;;;;7.88;5.38;;;10.50;40.60;;;;;;5043979;28;20205;-77
2022/03/11 00:32:39;;;;;;;7.63;5.30;;;10.50;40.20;;;;;;5023884;28;20198;-78
2022/03/11 00:35:10;;;;;;;6.40;5.55;;;10.60;40.40;;;;;;5044785;28;20185;-78
2022/03/11 00:37:37;;;;;;;7.25;4.95;;;10.50;40.30;;;;;;5038059;28;20205;-78
2022/03/11 00:40:03;;;;;;;8.82;5.80;;;10.50;40.30;;;;;;5043443;28;20180;-78
2022/03/11 00:42:29;;;;;;;6.13;4.70;;;10.60;40.30;;;;;;5043363;28;20320;-78
2022/03/11 00:44:54;;;;;;;7.63;5.87;;;10.60;40.00;;;;;;5043351;28;20689;-78
2022/03/11 00:47:20;;;;;;;7.17;4.60;;;10.60;40.20;;;;;;5043021;28;20176;-77
2022/03/11 00:49:46;;;;;;;6.37;5.50;;;10.50;40.10;;;;;;5040821;28;20170;-78
2022/03/11 00:52:12;;;;;;;6.27;4.60;;;10.50;40.20;;;;;;5041468;28;20720;-78
2022/03/11 00:54:37;;;;;;;6.00;4.70;;;10.50;40.10;;;;;;5043845;28;20185;-79
2022/03/11 00:57:03;;;;;;;6.83;5.23;;;10.50;40.00;;;;;;5049536;28;20611;-78
2022/03/11 00:59:30;;;;;;;6.70;4.88;;;10.50;40.00;;;;;;5042810;28;20177;-78
2022/03/11 01:01:55;;;;;;;9.63;6.23;;;10.50;40.10;;;;;;5041680;28;20165;-78
2022/03/11 01:04:21;;;;;;;6.87;5.83;;;10.50;40.30;;;;;;5026299;28;20617;-78
2022/03/11 01:06:48;;;;;;;6.90;5.18;;;10.40;40.50;;;;;;5024347;28;20189;-78
2022/03/11 01:09:13;;;;;;;6.00;4.50;;;10.40;40.40;;;;;;5043693;28;20177;-77
2022/03/11 01:11:39;;;;;;;6.43;5.67;;;10.40;40.20;;;;;;5040196;28;20684;-78
2022/03/11 01:14:05;;;;;;;6.87;5.10;;;10.40;40.30;;;;;;5027381;28;20670;-77
2022/03/11 01:16:31;;;;;;;8.98;5.22;;;10.40;40.50;;;;;;5041493;28;20188;-79
2022/03/11 01:18:57;;;;;;;6.47;5.07;;;10.40;40.60;;;;;;5043443;28;20178;-77
2022/03/11 01:21:23;;;;;;;7.10;4.43;;;10.40;40.80;;;;;;5040235;28;20174;-78
2022/03/11 01:23:49;;;;;;;5.40;4.40;;;10.40;40.70;;;;;;5044616;28;20197;-79
2022/03/11 01:26:16;;;;;;;5.32;4.68;;;10.40;40.50;;;;;;5036203;28;20170;-79
2022/03/11 01:28:42;;;;;;;5.95;4.63;;;10.40;40.60;;;;;;5043841;28;20184;-80
2022/03/11 01:31:11;;;;;;;6.13;4.47;;;10.40;40.30;;;;;;5024429;28;20204;-79
2022/03/11 01:33:41;;;;;;;6.30;4.60;;;10.30;40.60;;;;;;5031372;28;20244;-79
2022/03/11 01:36:07;;;;;;;6.28;4.18;;;10.30;40.60;;;;;;5041019;28;20252;-79
2022/03/11 01:38:33;;;;;;;7.78;6.22;;;10.30;40.50;;;;;;5044856;28;20216;-79
2022/03/11 01:40:59;;;;;;;6.88;5.10;;;10.20;41.40;;;;;;5040858;28;20525;-79
2022/03/11 01:43:28;;;;;;;7.25;5.03;;;10.20;41.10;;;;;;5044153;28;20197;-79
2022/03/11 01:45:55;;;;;;;6.55;4.82;;;10.20;40.80;;;;;;5042979;28;20185;-79
2022/03/11 01:48:20;;;;;;;6.28;5.32;;;10.10;41.00;;;;;;5042924;28;20180;-79
2022/03/11 01:50:46;;;;;;;6.00;5.30;;;10.10;41.20;;;;;;5048810;28;20260;-79
2022/03/11 01:53:13;;;;;;;7.30;4.87;;;10.10;41.80;;;;;;5041796;28;20211;-78
2022/03/11 01:55:41;;;;;;;7.38;5.07;;;10.10;41.00;;;;;;5047058;28;20637;-79
2022/03/11 01:58:08;;;;;;;6.20;5.28;;;10.00;41.20;;;;;;5050292;28;20863;-79
2022/03/11 02:00:38;;;;;;;7.18;5.25;;;10.00;41.50;;;;;;5028702;28;20182;-79
2022/03/11 02:03:04;;;;;;;5.95;4.80;;;10.00;41.40;;;;;;5044059;28;20554;-79
2022/03/11 02:05:30;;;;;;;5.00;4.28;;;9.90;42.20;;;;;;5040124;28;20223;-78
2022/03/11 02:07:58;;;;;;;7.37;5.33;;;9.90;41.90;;;;;;5041575;28;20201;-78
2022/03/11 02:10:25;;;;;;;6.28;5.00;;;9.90;42.20;;;;;;5047994;28;20576;-78
2022/03/11 02:12:51;;;;;;;7.45;5.65;;;9.90;42.90;;;;;;5040993;28;20697;-78
2022/03/11 02:15:17;;;;;;;8.00;5.93;;;9.80;42.70;;;;;;5043391;28;20208;-78
2022/03/11 02:17:43;;;;;;;7.57;5.70;;;9.80;42.60;;;;;;5019264;28;20209;-79
2022/03/11 02:20:09;;;;;;;10.03;7.00;;;9.80;43.30;;;;;;5044087;28;20181;-79
2022/03/11 02:22:38;;;;;;;8.43;6.30;;;9.80;43.20;;;;;;5049231;28;20193;-79
2022/03/11 02:25:08;;;;;;;8.63;5.97;;;9.80;43.50;;;;;;5042391;28;20181;-79
2022/03/11 02:27:36;;;;;;;8.50;5.70;;;9.80;42.90;;;;;;5025416;28;20633;-79
2022/03/11 02:30:10;;;;;;;7.10;4.93;;;9.70;43.60;;;;;;5035648;28;20207;-79
2022/03/11 02:32:36;;;;;;;5.93;5.05;;;9.70;43.00;;;;;;5038342;28;20193;-79
2022/03/11 02:35:02;;;;;;;7.60;6.40;;;9.70;43.30;;;;;;5042636;28;20181;-79
2022/03/11 02:37:28;;;;;;;7.87;6.40;;;9.70;43.20;;;;;;5043387;28;20213;-79
2022/03/11 02:39:55;;;;;;;7.10;5.70;;;9.60;43.30;;;;;;5038369;28;20687;-79
2022/03/11 02:42:22;;;;;;;8.65;6.22;;;9.60;43.40;;;;;;5042752;28;20201;-80
2022/03/11 02:44:47;;;;;;;8.45;5.70;;;9.60;43.50;;;;;;5043162;28;20184;-79
2022/03/11 02:47:13;;;;;;;7.00;5.07;;;9.60;43.70;;;;;;5050916;28;20177;-79
2022/03/11 02:49:39;;;;;;;6.60;5.47;;;9.60;43.80;;;;;;5038280;28;20550;-79
2022/03/11 02:52:05;;;;;;;6.77;5.03;;;9.60;43.70;;;;;;5025835;28;20609;-79
2022/03/11 02:54:31;;;;;;;8.75;6.38;;;9.50;43.80;;;;;;5039402;28;20584;-80
2022/03/11 02:56:57;;;;;;;6.73;5.77;;;9.50;44.40;;;;;;5042259;28;20200;-80
2022/03/11 02:59:23;;;;;;;9.43;6.17;;;9.50;43.80;;;;;;5022519;28;20185;-80
2022/03/11 03:01:48;;;;;;;8.47;6.20;;;9.50;44.60;;;;;;5041202;28;20560;-79
2022/03/11 03:04:14;;;;;;;6.33;5.43;;;9.50;44.30;;;;;;5042186;28;20195;-79
2022/03/11 03:06:40;;;;;;;9.20;6.80;;;9.40;45.10;;;;;;5022378;28;20288;-79
2022/03/11 03:09:05;;;;;;;10.20;6.37;;;9.40;44.70;;;;;;5042337;28;20184;-79
2022/03/11 03:11:34;;;;;;;7.13;6.15;;;9.50;44.80;;;;;;5035304;28;20201;-79
2022/03/11 03:14:00;;;;;;;7.40;5.70;;;9.40;44.80;;;;;;5045782;28;20223;-80
2022/03/11 03:16:25;;;;;;;6.17;5.27;;;9.40;44.70;;;;;;5048990;28;20189;-79
2022/03/11 03:18:51;;;;;;;8.47;6.67;;;9.40;44.60;;;;;;5024077;28;20204;-79
2022/03/11 03:21:17;;;;;;;13.23;8.03;;;9.30;45.20;;;;;;5044294;28;20174;-78
2022/03/11 03:23:43;;;;;;;10.02;7.05;;;9.30;46.20;;;;;;5050197;28;20634;-78
2022/03/11 03:26:09;;;;;;;7.87;5.90;;;9.20;46.40;;;;;;5033083;28;20170;-78
2022/03/11 03:28:34;;;;;;;9.23;6.80;;;9.20;46.50;;;;;;5021955;28;20193;-79
2022/03/11 03:31:01;;;;;;;8.87;6.00;;;9.20;45.40;;;;;;5038034;28;20180;-78
2022/03/11 03:33:26;;;;;;;7.28;5.90;;;9.20;45.40;;;;;;5039427;28;20281;-79
2022/03/11 03:35:52;;;;;;;7.00;6.30;;;9.20;45.50;;;;;;5039984;28;20267;-79
2022/03/11 03:38:19;;;;;;;10.82;7.32;;;9.20;46.20;;;;;;5024097;28;20227;-78
2022/03/11 03:40:45;;;;;;;7.43;5.82;;;9.20;46.10;;;;;;5041938;28;20209;-78
2022/03/11 03:43:10;;;;;;;7.70;6.20;;;9.20;45.50;;;;;;5046756;28;20266;-79
2022/03/11 03:45:36;;;;;;;8.40;6.10;;;9.20;46.60;;;;;;5043327;28;20188;-78
2022/03/11 03:48:02;;;;;;;11.77;7.20;;;9.10;46.20;;;;;;5045982;28;20687;-78
2022/03/11 03:50:29;;;;;;;7.63;6.83;;;9.10;46.80;;;;;;5042448;28;20210;-79
2022/03/11 03:52:55;;;;;;;8.30;6.68;;;9.10;45.90;;;;;;5041034;28;20626;-78
2022/03/11 03:55:20;;;;;;;7.97;6.50;;;9.00;46.60;;;;;;5027314;28;20169;-78
2022/03/11 03:57:46;;;;;;;10.07;6.80;;;9.00;47.00;;;;;;5043005;28;20209;-79
2022/03/11 04:00:13;;;;;;;9.85;6.90;;;8.90;47.40;;;;;;5041234;28;20189;-79
2022/03/11 04:02:48;;;;;;;8.13;6.80;;;8.90;47.70;;;;;;5047326;28;20247;-78
2022/03/11 04:05:14;;;;;;;10.18;6.32;;;8.90;47.40;;;;;;5042582;28;20173;-78
2022/03/11 04:07:44;;;;;;;9.57;6.72;;;8.80;47.70;;;;;;5029452;28;20541;-79
2022/03/11 04:10:12;;;;;;;10.88;7.55;;;8.80;47.20;;;;;;5037763;28;20227;-79
2022/03/11 04:12:38;;;;;;;11.25;7.75;;;8.80;47.00;;;;;;5045004;28;20219;-79
2022/03/11 04:15:05;;;;;;;12.05;8.70;;;8.80;48.00;;;;;;5043332;28;20173;-79
2022/03/11 04:17:31;;;;;;;16.17;9.10;;;8.80;49.00;;;;;;5025786;28;20836;-78
2022/03/11 04:19:57;;;;;;;9.80;7.57;;;8.80;48.10;;;;;;5045241;28;20189;-78
2022/03/11 04:22:22;;;;;;;10.77;8.63;;;8.80;48.30;;;;;;5024396;28;20264;-78
2022/03/11 04:24:49;;;;;;;10.93;9.00;;;8.70;48.50;;;;;;5041408;28;20178;-79
2022/03/11 04:27:15;;;;;;;9.38;8.30;;;8.70;48.90;;;;;;5044880;28;20673;-78
2022/03/11 04:29:41;;;;;;;11.00;7.63;;;8.70;48.60;;;;;;5044224;28;20176;-79
2022/03/11 04:32:07;;;;;;;8.00;7.20;;;8.70;49.00;;;;;;5044126;28;20624;-78
2022/03/11 04:34:36;;;;;;;12.32;9.40;;;8.70;48.50;;;;;;5044674;28;20693;-78
2022/03/11 04:37:03;;;;;;;10.65;7.57;;;8.70;48.80;;;;;;5045367;28;20217;-78
2022/03/11 04:39:29;;;;;;;12.77;9.00;;;8.60;49.20;;;;;;5047995;28;20565;-78
2022/03/11 04:41:57;;;;;;;10.93;8.85;;;8.60;49.00;;;;;;5041655;28;20178;-78
2022/03/11 04:44:23;;;;;;;9.75;7.53;;;8.60;48.80;;;;;;5025609;28;20576;-78
2022/03/11 04:46:50;;;;;;;9.50;7.60;;;8.60;48.80;;;;;;5039692;28;20188;-78
2022/03/11 04:49:17;;;;;;;13.88;9.07;;;8.60;48.80;;;;;;5043236;28;20204;-78
2022/03/11 04:51:43;;;;;;;11.95;8.40;;;8.50;48.50;;;;;;5038204;28;20170;-78
2022/03/11 04:54:09;;;;;;;11.20;8.05;;;8.50;49.30;;;;;;5044250;28;20193;-78
2022/03/11 04:56:37;;;;;;;12.53;9.57;;;8.50;48.60;;;;;;5041214;28;20177;-78
2022/03/11 04:59:03;;;;;;;11.10;8.30;;;8.40;49.30;;;;;;5043873;28;20201;-78
2022/03/11 05:01:29;;;;;;;11.32;7.85;;;8.40;49.30;;;;;;5041800;28;20240;-78
2022/03/11 05:03:55;;;;;;;8.77;7.27;;;8.30;49.20;;;;;;5044451;28;20185;-78
2022/03/11 05:06:21;;;;;;;10.00;8.60;;;8.30;49.40;;;;;;5032699;28;20603;-77
2022/03/11 05:08:46;;;;;;;9.40;6.93;;;8.30;49.40;;;;;;5026498;28;20249;-78
2022/03/11 05:11:12;;;;;;;10.20;7.60;;;8.30;48.80;;;;;;5039720;28;20192;-78
2022/03/11 05:13:38;;;;;;;17.40;9.60;;;8.30;49.20;;;;;;5049131;28;20693;-78
2022/03/11 05:16:04;;;;;;;12.60;8.87;;;8.20;50.20;;;;;;5053754;28;20173;-78
2022/03/11 05:18:30;;;;;;;11.40;9.20;;;8.10;50.20;;;;;;5043870;28;20219;-78
2022/03/11 05:20:55;;;;;;;8.30;6.87;;;8.10;49.80;;;;;;5045496;28;20177;-78
2022/03/11 05:23:21;;;;;;;13.73;10.17;;;8.30;49.50;;;;;;5043105;28;20265;-77
2022/03/11 05:25:47;;;;;;;12.98;9.35;;;8.20;50.70;;;;;;5040650;28;20174;-77
2022/03/11 05:28:13;;;;;;;14.25;10.25;;;8.20;49.60;;;;;;5043254;28;20176;-78
2022/03/11 05:30:39;;;;;;;9.90;8.27;;;8.20;49.60;;;;;;5041589;28;20616;-78
2022/03/11 05:33:05;;;;;;;16.30;9.63;;;8.10;49.20;;;;;;5040731;28;20647;-78
2022/03/11 05:35:32;;;;;;;11.90;10.20;;;8.10;50.70;;;;;;5042608;28;20598;-78
2022/03/11 05:37:58;;;;;;;12.25;9.55;;;8.10;49.80;;;;;;5023067;28;20201;-78
2022/03/11 05:40:24;;;;;;;12.63;9.73;;;8.10;50.30;;;;;;5043663;28;20538;-77
2022/03/11 05:42:51;;;;;;;12.50;9.80;;;8.10;50.40;;;;;;5041444;28;20204;-77
2022/03/11 05:45:17;;;;;;;11.60;8.93;;;8.00;50.10;;;;;;5041708;28;20195;-77
2022/03/11 05:47:43;;;;;;;13.05;9.00;;;8.10;50.10;;;;;;5043543;28;20181;-77
2022/03/11 05:50:09;;;;;;;13.88;10.48;;;7.90;50.70;;;;;;5038354;28;20173;-77
2022/03/11 05:52:36;;;;;;;11.50;9.35;;;7.90;50.70;;;;;;5042545;28;20221;-77
2022/03/11 05:55:03;;;;;;;15.00;10.60;;;7.90;50.70;;;;;;5041472;28;20223;-77
2022/03/11 05:57:29;;;;;;;16.73;11.02;;;7.90;50.90;;;;;;5044541;28;20291;-77
2022/03/11 05:59:54;;;;;;;13.07;11.60;;;7.80;51.00;;;;;;5042231;28;20201;-78
2022/03/11 06:02:20;;;;;;;13.77;9.10;;;7.80;50.90;;;;;;5042575;28;20228;-78
2022/03/11 06:04:48;;;;;;;12.98;10.27;;;7.80;51.30;;;;;;5039462;28;20211;-78
2022/03/11 06:07:14;;;;;;;10.20;9.17;;;7.90;50.60;;;;;;5042919;28;20270;-78
2022/03/11 06:09:40;;;;;;;11.50;7.60;;;7.80;50.70;;;;;;5037832;28;21148;-78
2022/03/11 06:12:06;;;;;;;14.03;10.60;;;7.80;50.20;;;;;;5026895;28;20201;-79
2022/03/11 06:14:32;;;;;;;13.93;10.05;;;7.80;51.20;;;;;;5024337;28;20271;-79
2022/03/11 06:16:58;;;;;;;12.20;9.40;;;7.80;51.10;;;;;;5043711;28;20275;-78
2022/03/11 06:19:23;;;;;;;12.90;9.57;;;7.80;50.80;;;;;;5029813;28;20174;-78
2022/03/11 06:21:49;;;;;;;12.73;9.97;;;7.80;50.80;;;;;;5021569;28;20617;-78
2022/03/11 06:24:15;;;;;;;14.67;10.80;;;7.80;51.10;;;;;;5037776;28;20664;-78
2022/03/11 06:26:42;;;;;;;15.05;11.52;;;7.70;51.80;;;;;;5038513;28;20584;-79
2022/03/11 06:29:10;;;;;;;13.07;10.50;;;7.70;51.80;;;;;;5045035;28;20181;-79
2022/03/11 06:31:36;;;;;;;11.43;10.20;;;7.70;51.80;;;;;;5041360;28;20181;-78
2022/03/11 06:34:02;;;;;;;13.93;10.30;;;7.70;51.70;;;;;;5006239;28;20624;-78
2022/03/11 06:36:28;;;;;;;18.20;9.97;;;7.70;51.10;;;;;;5039561;28;20178;-79
2022/03/11 06:38:55;;;;;;;14.73;11.40;;;7.70;50.90;;;;;;5041902;28;20215;-79
2022/03/11 06:41:22;;;;;;;13.05;11.55;;;7.80;50.90;;;;;;5040385;28;20660;-78
2022/03/11 06:43:47;;;;;;;14.52;12.57;;;7.80;51.60;;;;;;5043427;28;20259;-78
2022/03/11 06:46:18;;;;;;;15.75;12.30;;;7.80;51.30;;;;;;5040327;28;20193;-79
2022/03/11 06:48:44;;;;;;;15.40;12.15;;;7.80;51.10;;;;;;5038939;28;20550;-79
2022/03/11 06:51:11;;;;;;;16.00;12.63;;;7.80;51.10;;;;;;5038464;28;20180;-79
2022/03/11 06:53:37;;;;;;;13.10;11.20;;;7.80;51.70;;;;;;5042379;28;20689;-79
2022/03/11 06:56:04;;;;;;;15.37;13.57;;;7.80;51.20;;;;;;5041022;28;20246;-79
2022/03/11 06:58:31;;;;;;;17.30;13.07;;;7.80;51.70;;;;;;5040681;28;20208;-79
2022/03/11 07:00:56;;;;;;;15.07;13.23;;;7.80;51.90;;;;;;5040278;28;20721;-78
2022/03/11 07:03:22;;;;;;;15.53;12.10;;;7.80;52.20;;;;;;5041423;28;20283;-79
2022/03/11 07:05:48;;;;;;;16.23;12.87;;;7.90;51.50;;;;;;5038718;28;20197;-79
2022/03/11 07:08:15;;;;;;;16.50;14.00;;;7.90;51.40;;;;;;5043827;28;20184;-79
2022/03/11 07:10:41;;;;;;;13.90;11.97;;;7.80;52.40;;;;;;5038586;28;20553;-79
2022/03/11 07:13:07;;;;;;;17.75;14.60;;;7.90;51.90;;;;;;5039311;28;20216;-78
2022/03/11 07:15:33;;;;;;;14.00;11.90;;;7.90;52.30;;;;;;5041650;28;20177;-78
2022/03/11 07:17:59;;;;;;;14.40;12.90;;;7.90;51.80;;;;;;5024407;28;20712;-78
2022/03/11 07:20:25;;;;;;;16.50;11.57;;;7.90;52.20;;;;;;5046790;28;20579;-77
2022/03/11 07:22:51;;;;;;;14.73;12.80;;;8.00;52.00;;;;;;5018555;28;20601;-78
2022/03/11 07:25:20;;;;;;;15.80;12.75;;;7.90;52.00;;;;;;5039401;28;20533;-78
2022/03/11 07:27:48;;;;;;;13.90;12.13;;;8.00;51.90;;;;;;5023661;28;20394;-77
2022/03/11 07:30:14;;;;;;;17.55;14.05;;;8.10;52.10;;;;;;5041284;28;20296;-77
2022/03/11 07:32:41;;;;;;;21.97;15.10;;;8.00;52.10;;;;;;5046605;28;20283;-77
2022/03/11 07:35:12;;;;;;;15.85;13.00;;;8.10;52.10;;;;;;5039152;28;20576;-77
2022/03/11 07:37:40;;;;;;;13.23;11.82;;;8.10;51.90;;;;;;5040247;28;20212;-78
2022/03/11 07:40:07;;;;;;;18.83;13.85;;;8.30;51.90;;;;;;5040832;28;20185;-77
2022/03/11 07:42:35;;;;;;;16.55;14.52;;;8.30;51.80;;;;;;5038224;28;20276;-78
2022/03/11 07:45:02;;;;;;;15.70;14.13;;;8.40;51.70;;;;;;5046464;28;20274;-78
2022/03/11 07:47:28;;;;;;;20.13;13.70;;;8.30;51.80;;;;;;5040048;28;20181;-78
2022/03/11 07:49:54;;;;;;;17.73;14.60;;;8.40;51.70;;;;;;5039874;28;20279;-78
2022/03/11 07:52:22;;;;;;;18.13;14.40;;;8.40;51.40;;;;;;5038552;28;20188;-78
2022/03/11 07:54:48;;;;;;;16.10;13.77;;;8.50;51.60;;;;;;5032876;28;20181;-77
2022/03/11 07:57:13;;;;;;;16.27;13.63;;;8.60;51.30;;;;;;5041781;28;20736;-78
2022/03/11 07:59:41;;;;;;;19.80;14.10;;;8.80;51.40;;;;;;5039120;28;20178;-77
2022/03/11 08:02:08;;;;;;;17.05;13.25;;;9.20;51.40;;;;;;5021762;28;20205;-78
2022/03/11 08:04:33;;;;;;;14.90;12.40;;;9.50;51.00;;;;;;5042722;28;20178;-78
2022/03/11 08:07:01;;;;;;;15.53;13.00;;;10.00;50.20;;;;;;5039390;28;20176;-78
2022/03/11 08:09:28;;;;;;;16.23;13.75;;;10.60;50.30;;;;;;5041154;28;20534;-78
2022/03/11 08:11:54;;;;;;;13.50;12.10;;;11.20;49.60;;;;;;5039080;28;20242;-78
2022/03/11 08:14:20;;;;;;;17.83;13.97;;;11.70;49.10;;;;;;5037395;28;20181;-79
2022/03/11 08:16:48;;;;;;;14.23;12.70;;;12.30;48.30;;;;;;5050489;28;20215;-79
2022/03/11 08:19:14;;;;;;;19.50;14.17;;;12.60;47.10;;;;;;5028469;28;20936;-79
2022/03/11 08:21:40;;;;;;;13.67;11.57;;;13.10;47.00;;;;;;5046502;28;20189;-78
2022/03/11 08:24:06;;;;;;;13.45;12.05;;;13.60;47.80;;;;;;5044746;28;20193;-77
2022/03/11 08:26:32;;;;;;;14.43;11.25;;;14.20;46.80;;;;;;5043999;28;20181;-78
2022/03/11 08:28:59;;;;;;;15.57;13.53;;;14.50;46.40;;;;;;5036636;28;21431;-79
2022/03/11 08:31:25;;;;;;;15.10;12.43;;;14.70;44.70;;;;;;5043612;28;20571;-79
2022/03/11 08:33:51;;;;;;;15.60;12.80;;;14.90;44.20;;;;;;5040430;28;20197;-79
2022/03/11 08:36:16;;;;;;;14.17;12.63;;;15.00;43.50;;;;;;5039564;28;20530;-77
2022/03/11 08:38:48;;;;;;;13.00;11.70;;;14.80;42.30;;;;;;5042378;28;20729;-77
2022/03/11 08:41:16;;;;;;;11.70;10.50;;;14.80;43.40;;;;;;5036906;28;20224;-78
2022/03/11 08:43:43;;;;;;;14.20;12.40;;;15.10;44.80;;;;;;5026546;28;20607;-77
2022/03/11 08:46:10;;;;;;;15.23;13.63;;;15.30;43.00;;;;;;5023009;28;20710;-77
2022/03/11 08:48:37;;;;;;;12.73;11.53;;;15.20;41.20;;;;;;5025448;28;20607;-77
2022/03/11 08:51:04;;;;;;;13.87;11.77;;;15.20;42.60;;;;;;5036216;28;20584;-77
2022/03/11 08:53:29;;;;;;;13.77;12.37;;;15.30;42.30;;;;;;5042731;28;21186;-78
2022/03/11 08:55:55;;;;;;;15.67;13.20;;;15.40;42.90;;;;;;5044597;28;20579;-78
2022/03/11 08:58:21;;;;;;;13.83;12.40;;;15.70;42.40;;;;;;5050142;28;20210;-78
2022/03/11 09:00:47;;;;;;;15.57;13.47;;;15.80;41.40;;;;;;5041872;28;20240;-77
2022/03/11 09:03:13;;;;;;;13.50;12.10;;;15.60;40.60;;;;;;5040758;28;20753;-78
2022/03/11 09:05:39;;;;;;;12.90;11.60;;;15.60;41.10;;;;;;5037787;28;20590;-80
2022/03/11 09:08:09;;;;;;;12.60;11.10;;;15.70;41.00;;;;;;5036687;28;20226;-78
2022/03/11 09:10:35;;;;;;;13.40;11.47;;;15.80;40.60;;;;;;5025136;28;20974;-79
2022/03/11 09:13:02;;;;;;;15.10;12.90;;;15.90;41.10;;;;;;5042423;28;20595;-81
2022/03/11 09:15:27;;;;;;;13.07;11.70;;;16.00;41.00;;;;;;5042811;28;20658;-79
2022/03/11 09:17:53;;;;;;;14.10;11.33;;;15.90;39.80;;;;;;5040936;28;20675;-79
2022/03/11 09:20:22;;;;;;;14.37;12.87;;;16.00;40.40;;;;;;5045846;28;20580;-80
2022/03/11 09:22:48;;;;;;;14.53;12.43;;;16.30;40.30;;;;;;5037138;28;20697;-80
2022/03/11 09:25:16;;;;;;;14.57;12.87;;;16.20;39.50;;;;;;5039877;28;20560;-79
2022/03/11 09:27:42;;;;;;;14.37;11.27;;;16.50;40.60;;;;;;5042650;28;20731;-79
2022/03/11 09:30:08;;;;;;;12.83;11.50;;;16.80;41.50;;;;;;5042025;28;20604;-79
2022/03/11 09:32:34;;;;;;;12.90;11.53;;;17.40;41.70;;;;;;5040159;28;20608;-79
2022/03/11 09:35:00;;;;;;;13.00;11.70;;;17.80;40.30;;;;;;5042756;28;20584;-79
2022/03/11 09:37:27;;;;;;;12.83;11.53;;;18.30;40.80;;;;;;5038765;28;20409;-78
2022/03/11 09:39:53;;;;;;;11.43;9.50;;;18.60;39.90;;;;;;5036231;28;20686;-78
2022/03/11 09:42:19;;;;;;;13.73;11.60;;;18.90;40.90;;;;;;5021382;28;21017;-78
2022/03/11 09:44:53;;;;;;;15.00;13.40;;;19.20;38.90;;;;;;5040163;28;20564;-79
2022/03/11 09:47:20;;;;;;;12.97;11.13;;;19.00;37.90;;;;;;5041813;28;20600;-77
2022/03/11 09:49:47;;;;;;;13.20;11.80;;;19.00;38.20;;;;;;5044370;28;20569;-77
2022/03/11 09:52:15;;;;;;;13.93;12.63;;;19.00;38.70;;;;;;5033305;28;20972;-77
2022/03/11 09:54:41;;;;;;;13.30;12.00;;;18.60;36.50;;;;;;5047023;28;20637;-77
2022/03/11 09:57:07;;;;;;;11.43;10.23;;;18.60;37.00;;;;;;5048588;28;20571;-78
2022/03/11 09:59:33;;;;;;;14.30;12.80;;;18.70;37.90;;;;;;5041443;28;20165;-77
2022/03/11 10:01:58;;;;;;;14.83;11.70;;;18.60;37.30;;;;;;5034897;28;20581;-78
2022/03/11 10:04:25;;;;;;;13.20;11.90;;;18.80;37.60;;;;;;5051618;28;20650;-77
2022/03/11 10:06:54;;;;;;;11.47;10.27;;;18.80;37.80;;;;;;5044337;28;20177;-78
2022/03/11 10:09:20;;;;;;;13.33;11.90;;;19.00;38.30;;;;;;5040877;28;20642;-78
2022/03/11 10:11:57;;;;;;;12.67;11.37;;;19.00;37.30;;;;;;5039821;28;20918;-78
2022/03/11 10:14:32;;;;;;;14.20;12.63;;;18.90;37.30;;;;;;5036312;28;20571;-78
2022/03/11 10:17:00;;;;;;;12.50;11.30;;;18.70;37.00;;;;;;5032064;28;20571;-78
2022/03/11 10:19:26;;;;;;;14.53;13.00;;;18.80;37.10;;;;;;5040350;28;20575;-78
2022/03/11 10:21:57;;;;;;;13.57;12.10;;;18.80;36.30;;;;;;5043229;28;20668;-78
2022/03/11 10:24:22;;;;;;;12.80;11.40;;;18.60;36.40;;;;;;5018501;28;20578;-78
2022/03/11 10:26:50;;;;;;;12.97;11.57;;;18.70;36.90;;;;;;5041240;28;20936;-77
2022/03/11 10:29:22;;;;;;;12.30;10.90;;;18.60;36.60;;;;;;5043387;28;20186;-78
2022/03/11 10:31:51;;;;;;;17.53;12.57;;;18.70;37.30;;;;;;5040559;28;20595;-77
2022/03/11 10:34:26;;;;;;;14.47;12.60;;;18.30;36.10;;;;;;5044054;28;20576;-78
2022/03/11 10:36:54;;;;;;;14.20;12.70;;;17.70;35.40;;;;;;5015551;28;20585;-78
2022/03/11 10:39:20;;;;;;;13.80;12.37;;;17.60;36.10;;;;;;5010984;28;20593;-78
2022/03/11 10:41:49;;;;;;;14.90;12.80;;;17.30;36.40;;;;;;5037695;28;20566;-78
2022/03/11 10:44:18;;;;;;;12.97;11.67;;;16.70;35.80;;;;;;5050649;28;20173;-78
2022/03/11 10:46:44;;;;;;;13.47;11.37;;;16.60;36.90;;;;;;5016561;28;20621;-77
2022/03/11 10:49:10;;;;;;;15.47;11.50;;;16.80;37.40;;;;;;5037639;28;20584;-78
2022/03/11 10:51:38;;;;;;;13.00;11.07;;;17.00;37.50;;;;;;5025877;28;20236;-79
2022/03/11 10:54:09;;;;;;;12.37;11.17;;;17.30;37.80;;;;;;5036976;28;20201;-77
2022/03/11 10:56:39;;;;;;;16.63;11.50;;;17.40;37.30;;;;;;5042857;28;20582;-77
2022/03/11 10:59:05;;;;;;;11.93;10.50;;;17.60;37.60;;;;;;5043275;28;20618;-78
2022/03/11 11:01:36;;;;;;;13.23;11.40;;;17.80;38.00;;;;;;5022052;28;20577;-78
2022/03/11 11:04:04;;;;;;;10.83;9.53;;;17.90;37.20;;;;;;5032564;28;20707;-78
2022/03/11 11:06:30;;;;;;;10.23;9.23;;;18.10;38.10;;;;;;5038047;28;20568;-77
2022/03/11 11:08:56;;;;;;;12.70;11.47;;;18.50;38.30;;;;;;5039151;28;21183;-77
2022/03/11 11:11:22;;;;;;;13.57;12.27;;;18.60;37.00;;;;;;5017766;28;20585;-77
2022/03/11 11:13:49;;;;;;;13.47;12.07;;;18.40;36.00;;;;;;4994905;28;20604;-77
2022/03/11 11:16:24;;;;;;;14.57;13.17;;;18.10;35.50;;;;;;5028111;28;21147;-77
2022/03/11 11:18:52;;;;;;;14.23;12.83;;;18.00;35.70;;;;;;5037342;28;20957;-77
2022/03/11 11:21:24;;;;;;;13.67;11.73;;;17.60;36.00;;;;;;5042309;28;20582;-77
2022/03/11 11:23:57;;;;;;;12.63;10.80;;;17.50;36.10;;;;;;5038715;28;20612;-77
2022/03/11 11:26:23;;;;;;;14.03;12.47;;;17.70;36.30;;;;;;5041532;28;20608;-77
2022/03/11 11:29:00;;;;;;;13.83;11.57;;;17.70;36.50;;;;;;5034415;28;20593;-77
2022/03/11 11:31:29;;;;;;;13.73;12.30;;;17.40;35.80;;;;;;5018042;28;20603;-75
2022/03/11 11:33:55;;;;;;;11.97;10.60;;;17.10;35.70;;;;;;5041775;28;20620;-76
2022/03/11 11:36:34;;;;;;;12.33;11.00;;;17.20;36.50;;;;;;5041701;28;21364;-76
2022/03/11 11:39:07;;;;;;;12.57;11.07;;;17.20;36.50;;;;;;5042205;28;20208;-76
2022/03/11 11:41:35;;;;;;;15.77;11.73;;;17.20;36.70;;;;;;5038587;28;20566;-76
2022/03/11 11:44:04;;;;;;;19.37;10.30;;;17.00;36.60;;;;;;5034951;28;20702;-76
2022/03/11 11:46:32;;;;;;;12.13;10.80;;;17.30;37.20;;;;;;5038612;28;20685;-76
2022/03/11 11:49:03;;;;;;;12.40;10.77;;;17.40;37.10;;;;;;5022112;28;20685;-76
2022/03/11 11:51:32;;;;;;;14.90;10.80;;;17.50;37.20;;;;;;5037445;28;20674;-76
2022/03/11 11:54:08;;;;;;;12.97;11.40;;;17.60;37.40;;;;;;5024180;28;20615;-76
2022/03/11 11:56:43;;;;;;;15.13;10.80;;;17.60;36.40;;;;;;5022452;28;20676;-76
2022/03/11 11:59:24;;;;;;;13.60;12.20;;;17.70;36.70;;;;;;5018687;28;20628;-77
2022/03/11 12:01:55;;;;;;;13.77;11.67;;;17.60;36.20;;;;;;5041808;28;20630;-76
2022/03/11 12:04:32;;;;;;;14.07;11.17;;;17.70;36.50;;;;;;5043191;28;20580;-76
2022/03/11 12:07:00;;;;;;;11.33;10.10;;;17.60;36.60;;;;;;5026892;28;20580;-76
2022/03/11 12:09:48;;;;;;;14.87;13.20;;;17.50;36.60;;;;;;5042427;28;20596;-77
2022/03/11 12:12:30;;;;;;;11.80;9.20;;;17.00;36.00;;;;;;5027416;28;20604;-77
2022/03/11 12:15:05;;;;;;;14.30;11.53;;;17.10;36.70;;;;;;5038344;28;20611;-77
2022/03/11 12:17:55;;;;;;;14.37;11.20;;;17.20;36.70;;;;;;5041822;28;20611;-77
2022/03/11 12:20:33;;;;;;;12.03;10.83;;;17.20;36.70;;;;;;5041440;28;20583;-77
2022/03/11 12:23:12;;;;;;;10.73;9.73;;;17.20;37.20;;;;;;5045255;28;20596;-76
2022/03/11 12:25:50;;;;;;;11.47;10.37;;;17.40;37.40;;;;;;5022538;28;20579;-77
2022/03/11 12:28:25;;;;;;;12.20;10.93;;;17.60;37.10;;;;;;5041657;28;20576;-77
2022/03/11 12:30:50;;;;;;;10.53;9.47;;;17.60;36.90;;;;;;5037525;28;20587;-76
2022/03/11 12:33:20;;;;;;;17.03;14.27;;;17.70;37.50;;;;;;5043180;28;20661;-76
2022/03/11 12:35:48;;;;;;;13.57;12.17;;;17.40;36.60;;;;;;5043046;28;20264;-77
2022/03/11 12:38:17;;;;;;;12.17;10.83;;;17.40;36.70;;;;;;5041224;28;20628;-76
2022/03/11 12:40:44;;;;;;;12.53;10.30;;;17.40;36.80;;;;;;5050310;28;20581;-76